createdAt,value
2023-06-12T00:02:03.131Z,99.90
2023-06-12T00:07:12.672Z,99.90
2023-06-12T00:09:41.967Z,99.90
2023-06-12T00:12:11.692Z,99.90
2023-06-12T00:14:40.570Z,99.90
2023-06-12T00:17:09.680Z,99.90
2023-06-12T00:19:44.487Z,99.90
2023-06-12T00:22:15.957Z,99.90
2023-06-12T00:27:24.603Z,99.90
2023-06-12T00:29:53.475Z,99.90
2023-06-12T00:32:21.874Z,99.90
2023-06-12T00:34:50.336Z,99.90
2023-06-12T00:37:19.333Z,99.90
2023-06-12T00:39:47.599Z,99.90
2023-06-12T00:42:16.592Z,99.90
2023-06-12T00:55:17.852Z,99.90
2023-06-12T00:58:24.005Z,99.90
2023-06-12T01:04:30.767Z,99.90
2023-06-12T01:07:10.115Z,99.90
2023-06-12T01:09:45.856Z,99.90
2023-06-12T01:14:56.969Z,99.90
2023-06-12T01:17:28.253Z,99.90
2023-06-12T01:19:58.946Z,99.90
2023-06-12T01:22:32.229Z,99.90
2023-06-12T01:25:21.021Z,99.90
2023-06-12T01:28:18.351Z,99.90
2023-06-12T01:36:34.580Z,99.90
2023-06-12T01:39:05.617Z,99.90
2023-06-12T01:41:36.867Z,99.90
2023-06-12T01:44:11.606Z,99.90
2023-06-12T01:46:40.431Z,99.90
2023-06-12T01:49:08.886Z,99.90
2023-06-12T01:51:40.308Z,99.90
2023-06-12T01:54:10.141Z,99.90
2023-06-12T01:56:40.649Z,99.90
2023-06-12T02:01:59.478Z,99.90
2023-06-12T02:04:29.263Z,99.90
2023-06-12T02:07:00.377Z,99.90
2023-06-12T02:09:29.898Z,99.90
2023-06-12T02:11:58.567Z,99.90
2023-06-12T02:14:27.049Z,99.90
2023-06-12T02:16:57.080Z,99.90
2023-06-12T02:24:29.583Z,99.90
2023-06-12T02:26:58.275Z,99.90
2023-06-12T02:29:27.063Z,99.90
2023-06-12T02:31:56.905Z,99.90
2023-06-12T02:34:25.454Z,99.90
2023-06-12T02:36:54.560Z,99.90
2023-06-12T02:39:23.446Z,99.90
2023-06-12T02:44:30.843Z,99.90
2023-06-12T02:46:59.845Z,99.90
2023-06-12T02:49:31.256Z,99.90
2023-06-12T02:52:01.322Z,99.90
2023-06-12T02:54:30.716Z,99.90
2023-06-12T02:56:59.603Z,99.90
2023-06-12T02:59:29.558Z,99.90
2023-06-12T03:04:37.450Z,99.90
2023-06-12T03:07:07.162Z,99.90
2023-06-12T03:09:36.454Z,99.90
2023-06-12T03:12:05.647Z,99.90
2023-06-12T03:14:34.649Z,99.90
2023-06-12T03:17:02.815Z,99.90
2023-06-12T03:19:31.302Z,99.90
2023-06-12T03:26:08.308Z,99.90
2023-06-12T03:28:37.196Z,99.90
2023-06-12T03:31:06.659Z,99.90
2023-06-12T03:33:36.096Z,99.90
2023-06-12T03:36:05.295Z,99.90
2023-06-12T03:38:33.369Z,99.90
2023-06-12T03:41:02.067Z,99.90
2023-06-12T03:46:16.752Z,99.90
2023-06-12T03:48:45.838Z,99.90
2023-06-12T03:51:16.756Z,99.90
2023-06-12T03:53:45.236Z,99.90
2023-06-12T03:56:13.315Z,99.90
2023-06-12T03:58:41.695Z,99.90
2023-06-12T04:01:09.871Z,99.90
2023-06-12T04:07:42.267Z,99.90
2023-06-12T04:10:11.359Z,99.90
2023-06-12T04:12:41.193Z,99.90
2023-06-12T04:15:10.583Z,99.90
2023-06-12T04:17:39.322Z,99.90
2023-06-12T04:20:09.402Z,99.90
2023-06-12T04:22:38.302Z,99.90
2023-06-12T04:27:50.194Z,99.90
2023-06-12T04:30:22.253Z,99.90
2023-06-12T04:32:50.495Z,99.90
2023-06-12T04:35:20.036Z,99.90
2023-06-12T04:37:49.262Z,99.90
2023-06-12T04:40:21.410Z,99.90
2023-06-12T04:42:58.115Z,99.90
2023-06-12T04:48:07.489Z,99.90
2023-06-12T04:50:37.750Z,99.90
2023-06-12T04:53:07.496Z,99.90
2023-06-12T04:55:36.958Z,99.90
2023-06-12T04:58:05.873Z,99.90
2023-06-12T05:00:34.442Z,99.90
2023-06-12T05:03:04.235Z,99.90
2023-06-12T05:09:33.993Z,99.90
2023-06-12T05:12:07.591Z,99.90
2023-06-12T05:14:35.922Z,99.90
2023-06-12T05:17:05.260Z,99.90
2023-06-12T05:19:33.870Z,99.90
2023-06-12T05:22:02.739Z,99.90
2023-06-12T05:24:31.344Z,99.90
2023-06-12T05:32:07.752Z,99.90
2023-06-12T05:34:37.436Z,99.90
2023-06-12T05:37:05.924Z,99.90
2023-06-12T05:39:34.310Z,99.90
2023-06-12T05:42:03.700Z,99.90
2023-06-12T05:44:31.986Z,99.90
2023-06-12T05:47:00.571Z,99.90
2023-06-12T05:49:29.186Z,99.90
2023-06-12T05:51:58.087Z,99.90
2023-06-12T05:59:38.946Z,99.90
2023-06-12T06:02:07.956Z,99.90
2023-06-12T06:04:37.158Z,99.90
2023-06-12T06:07:17.029Z,99.90
2023-06-12T06:09:47.007Z,99.90
2023-06-12T06:12:16.296Z,99.90
2023-06-12T06:20:20.556Z,99.90
2023-06-12T06:22:50.572Z,99.90
2023-06-12T06:25:21.821Z,99.90
2023-06-12T06:27:50.189Z,99.90
2023-06-12T06:30:18.685Z,99.90
2023-06-12T06:32:48.126Z,99.90
2023-06-12T06:35:17.697Z,99.90
2023-06-12T06:37:46.069Z,99.90
2023-06-12T06:40:16.013Z,99.90
2023-06-12T06:47:37.953Z,99.90
2023-06-12T06:50:07.754Z,99.90
2023-06-12T06:52:36.334Z,99.90
2023-06-12T06:55:05.755Z,99.90
2023-06-12T06:57:35.447Z,99.90
2023-06-12T07:00:06.640Z,99.90
2023-06-12T07:02:37.953Z,99.90
2023-06-12T07:08:01.068Z,99.90
2023-06-12T07:10:32.569Z,99.90
2023-06-12T07:13:02.484Z,99.90
2023-06-12T07:15:32.005Z,99.90
2023-06-12T07:18:01.124Z,99.90
2023-06-12T07:20:29.776Z,99.90
2023-06-12T07:25:47.742Z,99.90
2023-06-12T07:28:18.576Z,99.90
2023-06-12T07:30:48.284Z,99.90
2023-06-12T07:33:17.272Z,99.90
2023-06-12T07:35:45.761Z,99.90
2023-06-12T07:38:15.383Z,99.90
2023-06-12T07:40:44.253Z,99.90
2023-06-12T07:45:53.300Z,99.90
2023-06-12T07:48:22.276Z,99.90
2023-06-12T07:50:52.102Z,99.90
2023-06-12T07:53:32.450Z,99.90
2023-06-12T07:56:09.493Z,99.90
2023-06-12T07:58:42.049Z,99.90
2023-06-12T08:01:11.314Z,99.90
2023-06-12T08:16:21.939Z,99.90
2023-06-12T08:18:50.560Z,99.90
2023-06-12T08:21:18.900Z,99.90
2023-06-12T08:23:47.657Z,99.90
2023-06-12T08:26:16.930Z,99.90
2023-06-12T08:28:50.829Z,99.90
2023-06-12T08:31:20.460Z,99.90
2023-06-12T08:33:49.542Z,99.90
2023-06-12T08:36:18.125Z,99.90
2023-06-12T08:43:53.282Z,99.90
2023-06-12T08:46:22.215Z,99.90
2023-06-12T08:48:51.059Z,99.90
2023-06-12T08:51:19.753Z,99.90
2023-06-12T08:53:49.769Z,99.90
2023-06-12T08:56:18.873Z,99.90
2023-06-12T09:04:49.441Z,99.90
2023-06-12T09:07:19.605Z,99.90
2023-06-12T09:09:48.779Z,99.60
2023-06-12T09:12:17.672Z,98.60
2023-06-12T09:14:49.643Z,98.10
2023-06-12T09:17:18.394Z,99.20
2023-06-12T09:22:25.767Z,98.30
2023-06-12T09:24:57.466Z,98.00
2023-06-12T09:27:25.733Z,96.90
2023-06-12T09:30:00.691Z,96.90
2023-06-12T09:32:31.485Z,95.60
2023-06-12T09:35:02.047Z,95.70
2023-06-12T09:37:32.353Z,95.30
2023-06-12T09:43:26.151Z,94.80
2023-06-12T09:45:54.897Z,94.70
2023-06-12T09:48:23.453Z,93.50
2023-06-12T09:50:52.607Z,93.50
2023-06-12T09:53:23.210Z,92.90
2023-06-12T09:55:53.035Z,92.30
2023-06-12T10:01:22.243Z,91.30
2023-06-12T10:03:54.603Z,92.20
2023-06-12T10:06:27.636Z,91.20
2023-06-12T10:08:59.157Z,90.60
2023-06-12T10:11:28.598Z,90.80
2023-06-12T10:13:59.222Z,90.00
2023-06-12T10:16:29.000Z,89.90
2023-06-12T10:23:35.280Z,86.70
2023-06-12T10:26:05.106Z,87.10
2023-06-12T10:28:34.763Z,88.40
2023-06-12T10:31:14.814Z,85.70
2023-06-12T10:33:59.669Z,87.40
2023-06-12T10:36:38.394Z,87.60
2023-06-12T10:44:35.890Z,86.20
2023-06-12T10:47:05.095Z,85.20
2023-06-12T10:49:53.444Z,85.00
2023-06-12T10:52:23.142Z,85.70
2023-06-12T10:55:15.691Z,85.10
2023-06-12T10:57:50.244Z,84.10
2023-06-12T11:08:46.693Z,83.30
2023-06-12T11:11:16.027Z,84.70
2023-06-12T11:13:45.108Z,84.30
2023-06-12T11:16:15.831Z,84.10
2023-06-12T11:18:44.224Z,84.00
2023-06-12T11:21:13.607Z,86.00
2023-06-12T11:23:42.863Z,84.30
2023-06-12T11:28:52.007Z,84.40
2023-06-12T11:31:20.851Z,82.80
2023-06-12T11:33:49.027Z,84.30
2023-06-12T11:36:17.411Z,84.60
2023-06-12T11:41:17.830Z,81.00
2023-06-12T11:43:46.733Z,81.10
2023-06-12T11:50:20.927Z,82.30
2023-06-12T11:52:53.041Z,82.70
2023-06-12T11:57:55.949Z,83.30
2023-06-12T12:00:27.317Z,82.90
2023-06-12T12:03:02.560Z,80.10
2023-06-12T12:12:59.632Z,82.00
2023-06-12T12:15:29.242Z,81.40
2023-06-12T12:17:57.569Z,82.70
2023-06-12T12:20:28.346Z,82.10
2023-06-12T12:22:59.307Z,82.60
2023-06-12T12:25:29.308Z,82.70
2023-06-12T12:28:01.334Z,80.00
2023-06-12T12:30:30.572Z,80.90
2023-06-12T12:37:01.859Z,83.00
2023-06-12T12:39:30.567Z,82.10
2023-06-12T12:41:59.421Z,85.10
2023-06-12T12:44:27.804Z,82.30
2023-06-12T12:46:56.374Z,81.80
2023-06-12T12:49:24.578Z,83.30
2023-06-12T12:51:53.153Z,83.00
2023-06-12T12:58:27.704Z,83.30
2023-06-12T13:00:56.022Z,84.10
2023-06-12T13:03:24.885Z,81.50
2023-06-12T13:05:53.954Z,81.30
2023-06-12T13:08:23.986Z,80.90
2023-06-12T13:10:52.550Z,82.70
2023-06-12T13:13:21.131Z,79.70
2023-06-12T13:20:02.566Z,81.40
2023-06-12T13:22:30.822Z,79.20
2023-06-12T13:24:59.619Z,81.60
2023-06-12T13:27:28.445Z,79.40
2023-06-12T13:29:56.883Z,76.00
2023-06-12T13:32:24.852Z,76.00
2023-06-12T13:34:53.111Z,76.30
2023-06-12T13:40:14.305Z,78.30
2023-06-12T13:42:44.371Z,78.50
2023-06-12T13:45:14.020Z,76.30
2023-06-12T13:47:42.117Z,76.30
2023-06-12T13:50:13.764Z,74.70
2023-06-12T13:52:43.357Z,76.20
2023-06-12T13:55:15.089Z,77.90
2023-06-12T14:00:22.188Z,79.00
2023-06-12T14:02:52.547Z,79.60
2023-06-12T14:05:20.838Z,79.70
2023-06-12T14:07:49.795Z,78.30
2023-06-12T14:10:20.337Z,77.20
2023-06-12T14:12:51.026Z,77.00
2023-06-12T14:15:20.441Z,76.20
2023-06-12T14:22:51.304Z,75.40
2023-06-12T14:25:20.350Z,79.90
2023-06-12T14:27:49.817Z,77.00
2023-06-12T14:30:19.218Z,76.80
2023-06-12T14:32:47.441Z,78.10
2023-06-12T14:35:15.647Z,77.00
2023-06-12T14:37:44.955Z,78.40
2023-06-12T14:42:53.108Z,78.50
2023-06-12T14:45:23.020Z,80.10
2023-06-12T14:47:53.837Z,80.40
2023-06-12T14:50:23.348Z,81.10
2023-06-12T14:52:51.694Z,79.00
2023-06-12T14:55:20.488Z,80.30
2023-06-12T14:57:52.368Z,81.40
2023-06-12T15:05:23.574Z,79.70
2023-06-12T15:07:51.420Z,81.10
2023-06-12T15:10:19.473Z,80.90
2023-06-12T15:12:59.409Z,80.00
2023-06-12T15:15:32.652Z,79.80
2023-06-12T15:18:00.839Z,80.50
2023-06-12T15:23:20.186Z,80.10
2023-06-12T15:25:48.595Z,80.00
2023-06-12T15:28:16.648Z,80.90
2023-06-12T15:30:44.638Z,79.50
2023-06-12T15:33:14.008Z,78.70
2023-06-12T15:35:42.123Z,81.30
2023-06-12T15:38:40.676Z,81.50
2023-06-12T15:44:02.809Z,82.80
2023-06-12T15:46:34.018Z,81.50
2023-06-12T15:49:02.696Z,82.40
2023-06-12T15:51:33.171Z,82.00
2023-06-12T15:54:01.782Z,81.40
2023-06-12T15:56:29.646Z,79.60
2023-06-12T15:59:01.594Z,81.20
2023-06-12T16:04:15.156Z,82.60
2023-06-12T16:06:47.110Z,83.60
2023-06-12T16:09:16.921Z,82.70
2023-06-12T16:11:45.192Z,82.60
2023-06-12T16:14:16.053Z,83.40
2023-06-12T16:16:45.144Z,82.00
2023-06-12T16:19:14.839Z,82.80
2023-06-12T16:24:33.924Z,81.80
2023-06-12T16:27:07.525Z,81.30
2023-06-12T16:29:50.341Z,80.80
2023-06-12T16:32:21.685Z,81.20
2023-06-12T16:35:03.300Z,80.90
2023-06-12T16:37:32.393Z,81.20
2023-06-12T16:40:16.467Z,80.60
2023-06-12T16:42:48.069Z,80.80
2023-06-12T16:49:24.379Z,81.00
2023-06-12T16:52:09.355Z,81.60
2023-06-12T16:54:43.138Z,82.70
2023-06-12T16:57:12.640Z,81.40
2023-06-12T16:59:42.975Z,80.60
2023-06-12T17:02:13.222Z,81.10
2023-06-12T17:04:47.984Z,81.20
2023-06-12T17:12:25.561Z,82.30
2023-06-12T17:14:54.174Z,81.80
2023-06-12T17:17:22.955Z,82.60
2023-06-12T17:19:52.014Z,83.20
2023-06-12T17:22:20.491Z,82.60
2023-06-12T17:24:48.564Z,81.60
2023-06-12T17:27:16.948Z,81.30
2023-06-12T17:34:37.067Z,82.10
2023-06-12T17:37:07.598Z,83.90
2023-06-12T17:39:37.605Z,84.10
2023-06-12T17:42:07.403Z,84.10
2023-06-12T17:44:41.684Z,83.70
2023-06-12T17:47:15.563Z,84.30
2023-06-12T17:49:45.552Z,83.60
2023-06-12T17:54:51.637Z,84.20
2023-06-12T17:57:20.318Z,83.70
2023-06-12T17:59:48.746Z,83.30
2023-06-12T18:02:16.900Z,84.40
2023-06-12T18:04:46.273Z,84.70
2023-06-12T18:07:14.786Z,84.60
2023-06-12T18:09:44.624Z,84.90
2023-06-12T18:15:31.325Z,85.20
2023-06-12T18:17:59.377Z,86.80
2023-06-12T18:20:29.099Z,86.80
2023-06-12T18:22:57.555Z,86.50
2023-06-12T18:25:25.827Z,87.00
2023-06-12T18:27:54.017Z,87.30
2023-06-12T18:30:25.064Z,87.10
2023-06-12T18:35:33.893Z,86.60
2023-06-12T18:38:03.608Z,87.50
2023-06-12T18:40:32.211Z,88.30
2023-06-12T18:43:00.598Z,87.60
2023-06-12T18:45:29.559Z,87.30
2023-06-12T18:47:58.169Z,88.00
2023-06-12T18:50:26.323Z,87.80
2023-06-12T18:57:01.069Z,87.90
2023-06-12T18:59:30.824Z,87.70
2023-06-12T19:01:59.778Z,88.30
2023-06-12T19:04:29.334Z,88.10
2023-06-12T19:06:58.078Z,89.60
2023-06-12T19:09:26.340Z,88.30
2023-06-12T19:11:54.452Z,88.00
2023-06-12T19:22:52.147Z,89.10
2023-06-12T19:25:20.342Z,89.60
2023-06-12T19:27:51.450Z,89.40
2023-06-12T19:30:19.835Z,89.20
2023-06-12T19:32:48.014Z,89.20
2023-06-12T19:35:17.292Z,89.60
2023-06-12T19:37:46.107Z,90.00
2023-06-12T19:40:15.526Z,89.90
2023-06-12T19:42:44.704Z,89.70
2023-06-12T19:49:39.429Z,89.10
2023-06-12T19:52:08.823Z,89.80
2023-06-12T19:54:37.532Z,89.30
2023-06-12T19:57:06.815Z,89.80
2023-06-12T19:59:37.871Z,89.50
2023-06-12T20:02:07.644Z,89.50
2023-06-12T20:07:18.548Z,89.30
2023-06-12T20:09:46.728Z,88.90
2023-06-12T20:12:15.215Z,88.80
2023-06-12T20:14:43.391Z,88.60
2023-06-12T20:17:12.698Z,88.70
2023-06-12T20:19:40.864Z,88.80
2023-06-12T20:22:10.676Z,89.20
2023-06-12T20:28:46.637Z,89.00
2023-06-12T20:31:15.763Z,89.60
2023-06-12T20:33:44.139Z,89.30
2023-06-12T20:36:12.698Z,89.40
2023-06-12T20:38:40.771Z,89.60
2023-06-12T20:41:10.085Z,89.50
2023-06-12T20:43:39.180Z,89.30
2023-06-12T20:48:47.503Z,88.80
2023-06-12T20:51:17.214Z,89.60
2023-06-12T20:53:45.382Z,89.60
2023-06-12T20:56:13.982Z,89.30
2023-06-12T20:58:42.560Z,89.70
2023-06-12T21:01:10.637Z,89.30
2023-06-12T21:03:38.836Z,89.10
2023-06-12T21:10:30.878Z,89.50
2023-06-12T21:12:59.758Z,89.90
2023-06-12T21:15:27.515Z,90.00
2023-06-12T21:17:56.303Z,90.10
2023-06-12T21:20:24.684Z,90.10
2023-06-12T21:22:53.773Z,90.20
2023-06-12T21:25:22.776Z,90.40
2023-06-12T21:27:52.555Z,90.50
2023-06-12T21:30:23.227Z,90.50
2023-06-12T21:37:21.501Z,90.60
2023-06-12T21:39:51.534Z,90.90
2023-06-12T21:42:20.256Z,90.90
2023-06-12T21:44:48.714Z,91.10
2023-06-12T21:47:17.694Z,91.20
2023-06-12T21:49:46.501Z,91.20
2023-06-12T21:55:11.300Z,91.20
2023-06-12T21:57:40.094Z,91.20
2023-06-12T22:00:11.023Z,91.30
2023-06-12T22:02:41.275Z,91.30
2023-06-12T22:05:12.216Z,91.50
2023-06-12T22:07:40.468Z,91.60
2023-06-12T22:10:11.928Z,91.70
2023-06-12T22:17:22.859Z,91.90
2023-06-12T22:19:51.816Z,92.10
2023-06-12T22:22:20.504Z,92.20
2023-06-12T22:24:48.474Z,92.20
2023-06-12T22:27:16.742Z,92.30
2023-06-12T22:29:45.980Z,92.40
2023-06-12T22:32:15.020Z,92.40
2023-06-12T22:34:44.765Z,92.60
2023-06-12T22:37:13.235Z,92.70
2023-06-12T22:44:47.477Z,93.00
2023-06-12T22:47:16.711Z,93.10
2023-06-12T22:49:45.376Z,93.30
2023-06-12T22:52:13.846Z,93.40
2023-06-12T22:54:44.517Z,93.50
2023-06-12T22:57:13.162Z,93.50
2023-06-12T22:59:41.554Z,93.80
2023-06-12T23:06:32.723Z,93.60
2023-06-12T23:09:01.584Z,93.70
2023-06-12T23:11:30.495Z,94.00
2023-06-12T23:14:02.252Z,94.20
2023-06-12T23:16:30.339Z,94.20
2023-06-12T23:18:58.879Z,94.10
2023-06-12T23:21:27.588Z,94.20
2023-06-12T23:23:58.278Z,94.20
2023-06-12T23:29:45.847Z,94.30
2023-06-12T23:32:14.117Z,94.20
2023-06-12T23:34:41.992Z,94.50
2023-06-12T23:37:10.981Z,94.60
2023-06-12T23:39:39.575Z,94.70
2023-06-12T23:42:09.181Z,94.50
2023-06-12T23:44:37.758Z,94.70
2023-06-12T23:49:46.900Z,94.90
2023-06-12T23:52:15.597Z,95.10
2023-06-12T23:54:44.272Z,94.90
2023-06-12T23:57:12.962Z,94.90
2023-06-12T23:59:46.263Z,95.00
